sensor_id;sensor_type;location;lat;lon;timestamp;P1;durP1;ratioP1;P2;durP2;ratioP2
62709;SDS011;48770;51.624;5.886;2023-05-21T00:01:51;1.70;;;1.23;;
62709;SDS011;48770;51.624;5.886;2023-05-21T00:04:17;1.35;;;1.23;;
62709;SDS011;48770;51.624;5.886;2023-05-21T00:06:43;2.55;;;1.27;;
62709;SDS011;48770;51.624;5.886;2023-05-21T00:09:08;1.55;;;1.45;;
62709;SDS011;48770;51.624;5.886;2023-05-21T00:11:34;2.83;;;1.38;;
62709;SDS011;48770;51.624;5.886;2023-05-21T00:13:59;2.65;;;1.60;;
62709;SDS011;48770;51.624;5.886;2023-05-21T00:16:25;2.88;;;1.60;;
62709;SDS011;48770;51.624;5.886;2023-05-21T00:18:50;2.28;;;1.50;;
62709;SDS011;48770;51.624;5.886;2023-05-21T00:21:18;1.75;;;1.30;;
62709;SDS011;48770;51.624;5.886;2023-05-21T00:23:47;1.63;;;1.33;;
62709;SDS011;48770;51.624;5.886;2023-05-21T00:26:14;2.95;;;1.50;;
62709;SDS011;48770;51.624;5.886;2023-05-21T00:28:40;3.38;;;1.60;;
62709;SDS011;48770;51.624;5.886;2023-05-21T00:31:05;2.75;;;1.65;;
62709;SDS011;48770;51.624;5.886;2023-05-21T00:33:31;1.80;;;1.58;;
62709;SDS011;48770;51.624;5.886;2023-05-21T00:35:56;1.58;;;1.40;;
62709;SDS011;48770;51.624;5.886;2023-05-21T00:38:22;1.90;;;1.70;;
62709;SDS011;48770;51.624;5.886;2023-05-21T00:40:48;2.25;;;1.50;;
62709;SDS011;48770;51.624;5.886;2023-05-21T00:43:13;1.88;;;1.55;;
62709;SDS011;48770;51.624;5.886;2023-05-21T00:45:42;2.35;;;1.40;;
62709;SDS011;48770;51.624;5.886;2023-05-21T00:48:08;2.17;;;1.60;;
62709;SDS011;48770;51.624;5.886;2023-05-21T00:50:34;2.92;;;1.63;;
62709;SDS011;48770;51.624;5.886;2023-05-21T00:53:00;2.42;;;1.58;;
62709;SDS011;48770;51.624;5.886;2023-05-21T00:55:25;2.67;;;2.00;;
62709;SDS011;48770;51.624;5.886;2023-05-21T00:57:51;1.88;;;1.48;;
62709;SDS011;48770;51.624;5.886;2023-05-21T01:00:16;3.33;;;1.63;;
62709;SDS011;48770;51.624;5.886;2023-05-21T01:02:42;2.00;;;1.67;;
62709;SDS011;48770;51.624;5.886;2023-05-21T01:05:08;3.22;;;1.70;;
62709;SDS011;48770;51.624;5.886;2023-05-21T01:07:34;3.92;;;1.45;;
62709;SDS011;48770;51.624;5.886;2023-05-21T01:10:02;2.60;;;1.60;;
62709;SDS011;48770;51.624;5.886;2023-05-21T01:12:32;6.57;;;1.35;;
62709;SDS011;48770;51.624;5.886;2023-05-21T01:15:00;2.63;;;1.65;;
62709;SDS011;48770;51.624;5.886;2023-05-21T01:17:27;3.50;;;1.80;;
62709;SDS011;48770;51.624;5.886;2023-05-21T01:19:54;3.63;;;1.70;;
62709;SDS011;48770;51.624;5.886;2023-05-21T01:22:24;5.88;;;2.13;;
62709;SDS011;48770;51.624;5.886;2023-05-21T01:24:52;2.05;;;1.52;;
62709;SDS011;48770;51.624;5.886;2023-05-21T01:27:19;2.42;;;1.65;;
62709;SDS011;48770;51.624;5.886;2023-05-21T01:29:45;3.38;;;1.42;;
62709;SDS011;48770;51.624;5.886;2023-05-21T01:37:50;3.53;;;1.35;;
62709;SDS011;48770;51.624;5.886;2023-05-21T01:40:17;2.10;;;1.38;;
62709;SDS011;48770;51.624;5.886;2023-05-21T01:42:47;3.35;;;1.58;;
62709;SDS011;48770;51.624;5.886;2023-05-21T01:45:13;2.53;;;1.40;;
62709;SDS011;48770;51.624;5.886;2023-05-21T01:47:40;1.85;;;1.60;;
62709;SDS011;48770;51.624;5.886;2023-05-21T01:50:08;4.10;;;1.70;;
62709;SDS011;48770;51.624;5.886;2023-05-21T01:52:35;4.22;;;1.75;;
62709;SDS011;48770;51.624;5.886;2023-05-21T01:55:00;1.88;;;1.70;;
62709;SDS011;48770;51.624;5.886;2023-05-21T01:57:26;4.22;;;1.73;;
62709;SDS011;48770;51.624;5.886;2023-05-21T01:59:51;2.15;;;1.55;;
62709;SDS011;48770;51.624;5.886;2023-05-21T02:02:18;2.00;;;1.45;;
62709;SDS011;48770;51.624;5.886;2023-05-21T02:04:43;1.63;;;1.52;;
62709;SDS011;48770;51.624;5.886;2023-05-21T02:07:10;2.47;;;1.40;;
62709;SDS011;48770;51.624;5.886;2023-05-21T02:09:38;1.80;;;1.63;;
62709;SDS011;48770;51.624;5.886;2023-05-21T02:12:04;2.10;;;1.65;;
62709;SDS011;48770;51.624;5.886;2023-05-21T02:14:29;5.20;;;1.75;;
62709;SDS011;48770;51.624;5.886;2023-05-21T02:16:57;1.92;;;1.58;;
62709;SDS011;48770;51.624;5.886;2023-05-21T02:19:23;3.42;;;2.00;;
62709;SDS011;48770;51.624;5.886;2023-05-21T02:21:48;2.63;;;1.97;;
62709;SDS011;48770;51.624;5.886;2023-05-21T02:24:13;2.40;;;1.73;;
62709;SDS011;48770;51.624;5.886;2023-05-21T02:26:39;2.33;;;1.75;;
62709;SDS011;48770;51.624;5.886;2023-05-21T02:29:05;2.55;;;1.50;;
62709;SDS011;48770;51.624;5.886;2023-05-21T02:31:30;1.52;;;1.38;;
62709;SDS011;48770;51.624;5.886;2023-05-21T02:33:56;3.08;;;1.70;;
62709;SDS011;48770;51.624;5.886;2023-05-21T02:36:21;2.03;;;1.60;;
62709;SDS011;48770;51.624;5.886;2023-05-21T02:38:49;2.70;;;1.08;;
62709;SDS011;48770;51.624;5.886;2023-05-21T02:41:14;2.22;;;1.50;;
62709;SDS011;48770;51.624;5.886;2023-05-21T02:43:39;5.70;;;1.73;;
62709;SDS011;48770;51.624;5.886;2023-05-21T02:46:05;1.45;;;1.30;;
62709;SDS011;48770;51.624;5.886;2023-05-21T02:48:31;2.25;;;1.40;;
62709;SDS011;48770;51.624;5.886;2023-05-21T02:50:57;3.53;;;1.50;;
62709;SDS011;48770;51.624;5.886;2023-05-21T02:53:22;3.33;;;1.60;;
62709;SDS011;48770;51.624;5.886;2023-05-21T02:55:48;2.63;;;1.87;;
62709;SDS011;48770;51.624;5.886;2023-05-21T02:58:13;2.40;;;1.65;;
62709;SDS011;48770;51.624;5.886;2023-05-21T03:00:39;3.00;;;1.70;;
62709;SDS011;48770;51.624;5.886;2023-05-21T03:03:04;4.10;;;1.55;;
62709;SDS011;48770;51.624;5.886;2023-05-21T03:05:29;1.58;;;1.48;;
62709;SDS011;48770;51.624;5.886;2023-05-21T03:07:55;1.65;;;1.52;;
62709;SDS011;48770;51.624;5.886;2023-05-21T03:10:21;2.55;;;1.70;;
62709;SDS011;48770;51.624;5.886;2023-05-21T03:12:46;2.03;;;1.70;;
62709;SDS011;48770;51.624;5.886;2023-05-21T03:15:11;2.73;;;1.67;;
62709;SDS011;48770;51.624;5.886;2023-05-21T03:17:39;1.77;;;1.58;;
62709;SDS011;48770;51.624;5.886;2023-05-21T03:20:06;1.55;;;1.40;;
62709;SDS011;48770;51.624;5.886;2023-05-21T03:22:33;2.40;;;1.40;;
62709;SDS011;48770;51.624;5.886;2023-05-21T03:24:58;2.55;;;1.65;;
62709;SDS011;48770;51.624;5.886;2023-05-21T03:27:25;2.75;;;1.85;;
62709;SDS011;48770;51.624;5.886;2023-05-21T03:29:51;1.98;;;1.63;;
62709;SDS011;48770;51.624;5.886;2023-05-21T03:32:18;4.22;;;1.42;;
62709;SDS011;48770;51.624;5.886;2023-05-21T03:34:44;2.90;;;1.52;;
62709;SDS011;48770;51.624;5.886;2023-05-21T03:37:09;2.90;;;1.63;;
62709;SDS011;48770;51.624;5.886;2023-05-21T03:39:34;2.30;;;1.83;;
62709;SDS011;48770;51.624;5.886;2023-05-21T03:42:00;2.15;;;1.60;;
62709;SDS011;48770;51.624;5.886;2023-05-21T03:44:25;5.40;;;1.60;;
62709;SDS011;48770;51.624;5.886;2023-05-21T03:46:50;3.47;;;1.50;;
62709;SDS011;48770;51.624;5.886;2023-05-21T03:49:16;2.63;;;1.65;;
62709;SDS011;48770;51.624;5.886;2023-05-21T03:51:41;2.53;;;1.65;;
62709;SDS011;48770;51.624;5.886;2023-05-21T03:54:07;3.15;;;1.58;;
62709;SDS011;48770;51.624;5.886;2023-05-21T03:56:32;4.95;;;1.95;;
62709;SDS011;48770;51.624;5.886;2023-05-21T03:58:57;2.47;;;1.60;;
62709;SDS011;48770;51.624;5.886;2023-05-21T04:01:23;1.83;;;1.70;;
62709;SDS011;48770;51.624;5.886;2023-05-21T04:03:48;2.38;;;1.65;;
62709;SDS011;48770;51.624;5.886;2023-05-21T04:06:13;3.20;;;2.10;;
62709;SDS011;48770;51.624;5.886;2023-05-21T04:08:39;3.42;;;1.52;;
62709;SDS011;48770;51.624;5.886;2023-05-21T04:11:05;3.03;;;1.65;;
62709;SDS011;48770;51.624;5.886;2023-05-21T04:13:30;2.15;;;1.73;;
62709;SDS011;48770;51.624;5.886;2023-05-21T04:15:56;2.10;;;1.83;;
62709;SDS011;48770;51.624;5.886;2023-05-21T04:18:21;2.92;;;1.60;;
62709;SDS011;48770;51.624;5.886;2023-05-21T04:20:49;3.33;;;1.63;;
62709;SDS011;48770;51.624;5.886;2023-05-21T04:23:15;4.30;;;1.90;;
62709;SDS011;48770;51.624;5.886;2023-05-21T04:25:40;4.10;;;1.80;;
62709;SDS011;48770;51.624;5.886;2023-05-21T04:28:06;3.90;;;1.90;;
62709;SDS011;48770;51.624;5.886;2023-05-21T04:30:32;2.38;;;1.65;;
62709;SDS011;48770;51.624;5.886;2023-05-21T04:32:59;2.35;;;1.67;;
62709;SDS011;48770;51.624;5.886;2023-05-21T04:35:25;2.72;;;1.70;;
62709;SDS011;48770;51.624;5.886;2023-05-21T04:37:51;4.90;;;2.05;;
62709;SDS011;48770;51.624;5.886;2023-05-21T04:40:18;1.90;;;1.70;;
62709;SDS011;48770;51.624;5.886;2023-05-21T04:42:48;1.88;;;1.50;;
62709;SDS011;48770;51.624;5.886;2023-05-21T04:45:14;3.83;;;1.88;;
62709;SDS011;48770;51.624;5.886;2023-05-21T04:47:41;2.13;;;1.73;;
62709;SDS011;48770;51.624;5.886;2023-05-21T04:50:07;3.33;;;2.13;;
62709;SDS011;48770;51.624;5.886;2023-05-21T04:52:32;2.25;;;1.73;;
62709;SDS011;48770;51.624;5.886;2023-05-21T04:54:58;2.85;;;1.85;;
62709;SDS011;48770;51.624;5.886;2023-05-21T04:57:26;2.33;;;1.80;;
62709;SDS011;48770;51.624;5.886;2023-05-21T04:59:52;4.22;;;2.00;;
62709;SDS011;48770;51.624;5.886;2023-05-21T05:02:17;3.25;;;1.58;;
62709;SDS011;48770;51.624;5.886;2023-05-21T05:04:43;2.15;;;1.95;;
62709;SDS011;48770;51.624;5.886;2023-05-21T05:07:08;1.98;;;1.70;;
62709;SDS011;48770;51.624;5.886;2023-05-21T05:09:34;5.00;;;2.00;;
62709;SDS011;48770;51.624;5.886;2023-05-21T05:11:59;2.10;;;1.90;;
62709;SDS011;48770;51.624;5.886;2023-05-21T05:14:25;3.30;;;2.05;;
62709;SDS011;48770;51.624;5.886;2023-05-21T05:16:50;2.88;;;1.88;;
62709;SDS011;48770;51.624;5.886;2023-05-21T05:19:16;2.63;;;2.20;;
62709;SDS011;48770;51.624;5.886;2023-05-21T05:21:41;2.22;;;1.95;;
62709;SDS011;48770;51.624;5.886;2023-05-21T05:24:06;2.80;;;1.65;;
62709;SDS011;48770;51.624;5.886;2023-05-21T05:26:32;2.03;;;1.83;;
62709;SDS011;48770;51.624;5.886;2023-05-21T05:28:57;4.43;;;2.05;;
62709;SDS011;48770;51.624;5.886;2023-05-21T05:31:22;5.93;;;1.83;;
62709;SDS011;48770;51.624;5.886;2023-05-21T05:33:47;4.40;;;1.90;;
62709;SDS011;48770;51.624;5.886;2023-05-21T05:36:13;1.95;;;1.70;;
62709;SDS011;48770;51.624;5.886;2023-05-21T05:38:38;1.88;;;1.67;;
62709;SDS011;48770;51.624;5.886;2023-05-21T05:41:04;5.35;;;1.70;;
62709;SDS011;48770;51.624;5.886;2023-05-21T05:43:29;4.38;;;1.75;;
62709;SDS011;48770;51.624;5.886;2023-05-21T05:45:55;3.33;;;1.55;;
62709;SDS011;48770;51.624;5.886;2023-05-21T05:48:20;2.70;;;2.03;;
62709;SDS011;48770;51.624;5.886;2023-05-21T05:50:46;3.40;;;2.00;;
62709;SDS011;48770;51.624;5.886;2023-05-21T05:53:12;2.55;;;1.77;;
62709;SDS011;48770;51.624;5.886;2023-05-21T05:55:38;2.50;;;1.73;;
62709;SDS011;48770;51.624;5.886;2023-05-21T05:58:04;1.85;;;1.67;;
62709;SDS011;48770;51.624;5.886;2023-05-21T06:00:30;2.67;;;2.00;;
62709;SDS011;48770;51.624;5.886;2023-05-21T06:02:55;2.33;;;1.80;;
62709;SDS011;48770;51.624;5.886;2023-05-21T06:05:21;2.85;;;1.88;;
62709;SDS011;48770;51.624;5.886;2023-05-21T06:07:46;3.50;;;1.73;;
62709;SDS011;48770;51.624;5.886;2023-05-21T06:10:11;4.68;;;1.88;;
62709;SDS011;48770;51.624;5.886;2023-05-21T06:12:37;2.88;;;2.08;;
62709;SDS011;48770;51.624;5.886;2023-05-21T06:15:03;2.25;;;1.67;;
62709;SDS011;48770;51.624;5.886;2023-05-21T06:17:29;3.55;;;1.85;;
62709;SDS011;48770;51.624;5.886;2023-05-21T06:19:55;2.33;;;1.75;;
62709;SDS011;48770;51.624;5.886;2023-05-21T06:22:20;2.80;;;1.88;;
62709;SDS011;48770;51.624;5.886;2023-05-21T06:24:46;2.10;;;1.70;;
62709;SDS011;48770;51.624;5.886;2023-05-21T06:27:11;2.00;;;1.50;;
62709;SDS011;48770;51.624;5.886;2023-05-21T06:29:36;1.80;;;1.70;;
62709;SDS011;48770;51.624;5.886;2023-05-21T06:32:02;1.65;;;1.55;;
62709;SDS011;48770;51.624;5.886;2023-05-21T06:34:28;2.65;;;2.13;;
62709;SDS011;48770;51.624;5.886;2023-05-21T06:36:53;2.75;;;2.00;;
62709;SDS011;48770;51.624;5.886;2023-05-21T06:39:18;2.00;;;1.80;;
62709;SDS011;48770;51.624;5.886;2023-05-21T06:41:44;2.40;;;1.77;;
62709;SDS011;48770;51.624;5.886;2023-05-21T06:44:09;2.10;;;1.65;;
62709;SDS011;48770;51.624;5.886;2023-05-21T06:46:35;2.13;;;1.92;;
62709;SDS011;48770;51.624;5.886;2023-05-21T06:49:00;2.92;;;1.58;;
62709;SDS011;48770;51.624;5.886;2023-05-21T06:51:26;2.42;;;2.00;;
62709;SDS011;48770;51.624;5.886;2023-05-21T06:53:51;3.08;;;1.80;;
62709;SDS011;48770;51.624;5.886;2023-05-21T06:56:17;2.72;;;2.08;;
62709;SDS011;48770;51.624;5.886;2023-05-21T06:58:42;3.33;;;1.70;;
62709;SDS011;48770;51.624;5.886;2023-05-21T07:01:08;1.90;;;1.70;;
62709;SDS011;48770;51.624;5.886;2023-05-21T07:03:34;2.33;;;1.90;;
62709;SDS011;48770;51.624;5.886;2023-05-21T07:06:00;2.17;;;1.92;;
62709;SDS011;48770;51.624;5.886;2023-05-21T07:08:25;2.78;;;2.00;;
62709;SDS011;48770;51.624;5.886;2023-05-21T07:10:51;2.47;;;1.70;;
62709;SDS011;48770;51.624;5.886;2023-05-21T07:13:16;1.65;;;1.48;;
62709;SDS011;48770;51.624;5.886;2023-05-21T07:15:42;3.10;;;1.92;;
62709;SDS011;48770;51.624;5.886;2023-05-21T07:18:07;2.33;;;2.13;;
62709;SDS011;48770;51.624;5.886;2023-05-21T07:20:32;2.30;;;2.10;;
62709;SDS011;48770;51.624;5.886;2023-05-21T07:22:58;2.63;;;2.00;;
62709;SDS011;48770;51.624;5.886;2023-05-21T07:25:23;2.00;;;1.80;;
62709;SDS011;48770;51.624;5.886;2023-05-21T07:27:49;2.42;;;1.90;;
62709;SDS011;48770;51.624;5.886;2023-05-21T07:30:14;2.22;;;1.95;;
62709;SDS011;48770;51.624;5.886;2023-05-21T07:32:40;3.08;;;2.30;;
62709;SDS011;48770;51.624;5.886;2023-05-21T07:35:05;2.17;;;1.98;;
62709;SDS011;48770;51.624;5.886;2023-05-21T07:37:31;2.65;;;1.98;;
62709;SDS011;48770;51.624;5.886;2023-05-21T07:39:56;4.30;;;2.47;;
62709;SDS011;48770;51.624;5.886;2023-05-21T07:42:25;2.72;;;2.20;;
62709;SDS011;48770;51.624;5.886;2023-05-21T07:44:50;3.20;;;2.58;;
62709;SDS011;48770;51.624;5.886;2023-05-21T07:47:16;2.45;;;1.92;;
62709;SDS011;48770;51.624;5.886;2023-05-21T07:49:42;3.33;;;2.40;;
62709;SDS011;48770;51.624;5.886;2023-05-21T07:52:07;4.25;;;2.50;;
62709;SDS011;48770;51.624;5.886;2023-05-21T07:54:32;2.63;;;2.10;;
62709;SDS011;48770;51.624;5.886;2023-05-21T07:56:58;3.35;;;2.47;;
62709;SDS011;48770;51.624;5.886;2023-05-21T07:59:25;3.38;;;2.15;;
62709;SDS011;48770;51.624;5.886;2023-05-21T08:01:51;2.10;;;1.85;;
62709;SDS011;48770;51.624;5.886;2023-05-21T08:04:17;3.22;;;2.42;;
62709;SDS011;48770;51.624;5.886;2023-05-21T08:06:42;2.30;;;1.92;;
62709;SDS011;48770;51.624;5.886;2023-05-21T08:09:08;2.47;;;2.28;;
62709;SDS011;48770;51.624;5.886;2023-05-21T08:11:33;3.83;;;2.20;;
62709;SDS011;48770;51.624;5.886;2023-05-21T08:13:59;3.28;;;2.45;;
62709;SDS011;48770;51.624;5.886;2023-05-21T08:16:24;4.63;;;2.28;;
62709;SDS011;48770;51.624;5.886;2023-05-21T08:18:49;3.13;;;2.28;;
62709;SDS011;48770;51.624;5.886;2023-05-21T08:21:15;3.10;;;2.15;;
62709;SDS011;48770;51.624;5.886;2023-05-21T08:23:41;5.80;;;2.70;;
62709;SDS011;48770;51.624;5.886;2023-05-21T08:26:06;2.50;;;2.28;;
62709;SDS011;48770;51.624;5.886;2023-05-21T08:28:32;4.15;;;2.38;;
62709;SDS011;48770;51.624;5.886;2023-05-21T08:30:59;4.65;;;2.63;;
62709;SDS011;48770;51.624;5.886;2023-05-21T08:33:25;2.63;;;2.40;;
62709;SDS011;48770;51.624;5.886;2023-05-21T08:35:51;2.65;;;2.00;;
62709;SDS011;48770;51.624;5.886;2023-05-21T08:38:16;3.10;;;2.50;;
62709;SDS011;48770;51.624;5.886;2023-05-21T08:40:41;5.55;;;2.15;;
62709;SDS011;48770;51.624;5.886;2023-05-21T08:43:07;3.65;;;2.45;;
62709;SDS011;48770;51.624;5.886;2023-05-21T08:45:37;4.13;;;2.70;;
62709;SDS011;48770;51.624;5.886;2023-05-21T08:48:06;2.88;;;2.28;;
62709;SDS011;48770;51.624;5.886;2023-05-21T08:50:35;2.70;;;2.50;;
62709;SDS011;48770;51.624;5.886;2023-05-21T08:53:01;3.83;;;2.30;;
62709;SDS011;48770;51.624;5.886;2023-05-21T08:55:26;5.95;;;3.03;;
62709;SDS011;48770;51.624;5.886;2023-05-21T08:57:52;2.78;;;2.50;;
62709;SDS011;48770;51.624;5.886;2023-05-21T09:00:18;3.03;;;2.72;;
62709;SDS011;48770;51.624;5.886;2023-05-21T09:02:48;5.82;;;2.50;;
62709;SDS011;48770;51.624;5.886;2023-05-21T09:05:15;3.03;;;2.65;;
62709;SDS011;48770;51.624;5.886;2023-05-21T09:07:46;2.70;;;2.40;;
62709;SDS011;48770;51.624;5.886;2023-05-21T09:10:22;3.53;;;2.60;;
62709;SDS011;48770;51.624;5.886;2023-05-21T09:12:51;4.22;;;2.53;;
62709;SDS011;48770;51.624;5.886;2023-05-21T09:15:17;2.85;;;2.55;;
62709;SDS011;48770;51.624;5.886;2023-05-21T09:17:45;2.90;;;2.50;;
62709;SDS011;48770;51.624;5.886;2023-05-21T09:20:12;3.47;;;2.47;;
62709;SDS011;48770;51.624;5.886;2023-05-21T09:25:10;2.97;;;2.38;;
62709;SDS011;48770;51.624;5.886;2023-05-21T09:27:36;2.85;;;2.50;;
62709;SDS011;48770;51.624;5.886;2023-05-21T09:30:03;3.33;;;2.70;;
62709;SDS011;48770;51.624;5.886;2023-05-21T09:32:30;3.85;;;3.08;;
62709;SDS011;48770;51.624;5.886;2023-05-21T09:35:04;2.88;;;2.45;;
62709;SDS011;48770;51.624;5.886;2023-05-21T09:37:31;5.63;;;2.72;;
62709;SDS011;48770;51.624;5.886;2023-05-21T09:40:04;3.80;;;2.78;;
62709;SDS011;48770;51.624;5.886;2023-05-21T09:42:34;3.07;;;2.70;;
62709;SDS011;48770;51.624;5.886;2023-05-21T09:44:59;2.70;;;2.50;;
62709;SDS011;48770;51.624;5.886;2023-05-21T09:47:25;3.10;;;2.80;;
62709;SDS011;48770;51.624;5.886;2023-05-21T09:49:50;4.93;;;3.22;;
62709;SDS011;48770;51.624;5.886;2023-05-21T09:52:22;4.88;;;3.17;;
62709;SDS011;48770;51.624;5.886;2023-05-21T09:54:51;2.95;;;2.65;;
62709;SDS011;48770;51.624;5.886;2023-05-21T09:57:22;2.67;;;2.30;;
62709;SDS011;48770;51.624;5.886;2023-05-21T09:59:49;3.22;;;2.80;;
62709;SDS011;48770;51.624;5.886;2023-05-21T10:02:15;2.95;;;2.63;;
62709;SDS011;48770;51.624;5.886;2023-05-21T10:04:44;6.03;;;3.35;;
62709;SDS011;48770;51.624;5.886;2023-05-21T10:07:13;3.15;;;2.20;;
62709;SDS011;48770;51.624;5.886;2023-05-21T10:09:44;2.63;;;2.42;;
62709;SDS011;48770;51.624;5.886;2023-05-21T10:12:11;3.60;;;2.75;;
62709;SDS011;48770;51.624;5.886;2023-05-21T10:14:38;2.67;;;2.35;;
62709;SDS011;48770;51.624;5.886;2023-05-21T10:17:06;2.92;;;2.58;;
62709;SDS011;48770;51.624;5.886;2023-05-21T10:19:32;3.88;;;2.78;;
62709;SDS011;48770;51.624;5.886;2023-05-21T10:22:00;2.90;;;2.47;;
62709;SDS011;48770;51.624;5.886;2023-05-21T10:24:28;3.40;;;2.90;;
62709;SDS011;48770;51.624;5.886;2023-05-21T10:26:54;2.90;;;2.40;;
62709;SDS011;48770;51.624;5.886;2023-05-21T10:29:19;3.28;;;2.70;;
62709;SDS011;48770;51.624;5.886;2023-05-21T10:31:47;3.38;;;2.95;;
62709;SDS011;48770;51.624;5.886;2023-05-21T10:34:15;4.28;;;3.05;;
62709;SDS011;48770;51.624;5.886;2023-05-21T10:36:42;2.45;;;2.25;;
62709;SDS011;48770;51.624;5.886;2023-05-21T10:39:08;5.90;;;2.90;;
62709;SDS011;48770;51.624;5.886;2023-05-21T10:41:48;3.25;;;2.95;;
62709;SDS011;48770;51.624;5.886;2023-05-21T10:56:10;3.85;;;2.85;;
62709;SDS011;48770;51.624;5.886;2023-05-21T11:01:46;8.23;;;2.97;;
62709;SDS011;48770;51.624;5.886;2023-05-21T11:04:13;4.80;;;3.38;;
62709;SDS011;48770;51.624;5.886;2023-05-21T11:06:39;4.13;;;3.67;;
62709;SDS011;48770;51.624;5.886;2023-05-21T11:09:11;3.80;;;3.47;;
62709;SDS011;48770;51.624;5.886;2023-05-21T11:11:38;5.63;;;4.03;;
62709;SDS011;48770;51.624;5.886;2023-05-21T11:14:24;6.32;;;4.00;;
62709;SDS011;48770;51.624;5.886;2023-05-21T11:16:50;4.43;;;4.03;;
62709;SDS011;48770;51.624;5.886;2023-05-21T11:19:15;4.75;;;3.80;;
62709;SDS011;48770;51.624;5.886;2023-05-21T11:21:41;3.63;;;3.33;;
62709;SDS011;48770;51.624;5.886;2023-05-21T11:24:06;3.72;;;3.40;;
62709;SDS011;48770;51.624;5.886;2023-05-21T11:29:11;4.88;;;4.38;;
62709;SDS011;48770;51.624;5.886;2023-05-21T11:31:37;5.75;;;4.13;;
62709;SDS011;48770;51.624;5.886;2023-05-21T11:34:22;5.45;;;4.20;;
62709;SDS011;48770;51.624;5.886;2023-05-21T11:39:45;6.15;;;3.92;;
62709;SDS011;48770;51.624;5.886;2023-05-21T11:42:11;4.82;;;4.05;;
62709;SDS011;48770;51.624;5.886;2023-05-21T11:44:37;4.55;;;4.15;;
62709;SDS011;48770;51.624;5.886;2023-05-21T11:47:18;5.07;;;4.57;;
62709;SDS011;48770;51.624;5.886;2023-05-21T11:49:44;6.20;;;4.57;;
62709;SDS011;48770;51.624;5.886;2023-05-21T11:52:10;5.90;;;5.25;;
62709;SDS011;48770;51.624;5.886;2023-05-21T11:54:44;4.85;;;4.25;;
62709;SDS011;48770;51.624;5.886;2023-05-21T11:57:12;5.20;;;4.10;;
62709;SDS011;48770;51.624;5.886;2023-05-21T11:59:42;5.55;;;4.50;;
62709;SDS011;48770;51.624;5.886;2023-05-21T12:02:08;5.80;;;5.03;;
62709;SDS011;48770;51.624;5.886;2023-05-21T12:04:41;5.22;;;4.72;;
62709;SDS011;48770;51.624;5.886;2023-05-21T12:07:07;5.40;;;4.88;;
62709;SDS011;48770;51.624;5.886;2023-05-21T12:09:45;7.40;;;4.75;;
62709;SDS011;48770;51.624;5.886;2023-05-21T12:12:13;6.18;;;5.50;;
62709;SDS011;48770;51.624;5.886;2023-05-21T12:14:44;5.85;;;4.93;;
62709;SDS011;48770;51.624;5.886;2023-05-21T12:17:11;6.68;;;5.40;;
62709;SDS011;48770;51.624;5.886;2023-05-21T12:19:40;6.25;;;4.60;;
62709;SDS011;48770;51.624;5.886;2023-05-21T12:22:06;6.57;;;5.60;;
62709;SDS011;48770;51.624;5.886;2023-05-21T12:24:32;7.22;;;5.82;;
62709;SDS011;48770;51.624;5.886;2023-05-21T12:26:58;5.80;;;4.97;;
62709;SDS011;48770;51.624;5.886;2023-05-21T12:29:26;5.80;;;5.22;;
62709;SDS011;48770;51.624;5.886;2023-05-21T12:31:53;6.68;;;5.18;;
62709;SDS011;48770;51.624;5.886;2023-05-21T12:37:09;6.55;;;5.85;;
62709;SDS011;48770;51.624;5.886;2023-05-21T12:39:59;7.45;;;5.25;;
62709;SDS011;48770;51.624;5.886;2023-05-21T12:42:29;7.53;;;5.87;;
62709;SDS011;48770;51.624;5.886;2023-05-21T12:44:56;7.18;;;5.45;;
62709;SDS011;48770;51.624;5.886;2023-05-21T12:47:22;5.45;;;4.93;;
62709;SDS011;48770;51.624;5.886;2023-05-21T12:49:49;6.32;;;5.32;;
62709;SDS011;48770;51.624;5.886;2023-05-21T12:52:19;6.70;;;5.40;;
62709;SDS011;48770;51.624;5.886;2023-05-21T12:54:48;6.45;;;5.55;;
62709;SDS011;48770;51.624;5.886;2023-05-21T12:57:16;5.60;;;5.07;;
62709;SDS011;48770;51.624;5.886;2023-05-21T12:59:46;5.57;;;5.07;;
62709;SDS011;48770;51.624;5.886;2023-05-21T13:02:14;6.13;;;4.93;;
62709;SDS011;48770;51.624;5.886;2023-05-21T13:04:41;6.18;;;5.20;;
62709;SDS011;48770;51.624;5.886;2023-05-21T13:07:06;6.72;;;5.50;;
62709;SDS011;48770;51.624;5.886;2023-05-21T13:09:31;6.82;;;4.90;;
62709;SDS011;48770;51.624;5.886;2023-05-21T13:11:57;6.13;;;5.28;;
62709;SDS011;48770;51.624;5.886;2023-05-21T13:14:22;5.60;;;5.10;;
62709;SDS011;48770;51.624;5.886;2023-05-21T13:16:47;5.80;;;4.53;;
62709;SDS011;48770;51.624;5.886;2023-05-21T13:19:13;6.38;;;5.60;;
62709;SDS011;48770;51.624;5.886;2023-05-21T13:21:39;6.40;;;5.50;;
62709;SDS011;48770;51.624;5.886;2023-05-21T13:24:04;6.50;;;5.07;;
62709;SDS011;48770;51.624;5.886;2023-05-21T13:26:31;6.10;;;5.47;;
62709;SDS011;48770;51.624;5.886;2023-05-21T13:28:57;7.47;;;5.63;;
62709;SDS011;48770;51.624;5.886;2023-05-21T13:31:22;5.85;;;4.63;;
62709;SDS011;48770;51.624;5.886;2023-05-21T13:33:47;5.90;;;5.38;;
62709;SDS011;48770;51.624;5.886;2023-05-21T13:36:13;6.03;;;5.43;;
62709;SDS011;48770;51.624;5.886;2023-05-21T13:38:38;5.65;;;4.80;;
62709;SDS011;48770;51.624;5.886;2023-05-21T13:41:03;6.40;;;5.55;;
62709;SDS011;48770;51.624;5.886;2023-05-21T13:43:29;5.47;;;4.97;;
62709;SDS011;48770;51.624;5.886;2023-05-21T13:45:56;5.90;;;5.30;;
62709;SDS011;48770;51.624;5.886;2023-05-21T13:48:21;5.45;;;4.95;;
62709;SDS011;48770;51.624;5.886;2023-05-21T13:50:46;6.45;;;5.32;;
62709;SDS011;48770;51.624;5.886;2023-05-21T13:53:12;5.10;;;4.60;;
62709;SDS011;48770;51.624;5.886;2023-05-21T13:55:37;5.97;;;5.10;;
62709;SDS011;48770;51.624;5.886;2023-05-21T13:58:02;7.90;;;5.45;;
62709;SDS011;48770;51.624;5.886;2023-05-21T14:00:28;5.78;;;4.97;;
62709;SDS011;48770;51.624;5.886;2023-05-21T14:02:54;6.13;;;5.53;;
62709;SDS011;48770;51.624;5.886;2023-05-21T14:05:20;6.53;;;5.28;;
62709;SDS011;48770;51.624;5.886;2023-05-21T14:07:45;8.55;;;5.25;;
62709;SDS011;48770;51.624;5.886;2023-05-21T14:10:12;6.85;;;4.95;;
62709;SDS011;48770;51.624;5.886;2023-05-21T14:12:37;7.75;;;5.28;;
62709;SDS011;48770;51.624;5.886;2023-05-21T14:15:03;6.80;;;5.07;;
62709;SDS011;48770;51.624;5.886;2023-05-21T14:17:28;5.22;;;4.72;;
62709;SDS011;48770;51.624;5.886;2023-05-21T14:19:54;7.75;;;4.93;;
62709;SDS011;48770;51.624;5.886;2023-05-21T14:22:19;5.53;;;4.90;;
62709;SDS011;48770;51.624;5.886;2023-05-21T14:24:45;5.43;;;4.53;;
62709;SDS011;48770;51.624;5.886;2023-05-21T14:27:11;5.32;;;4.82;;
62709;SDS011;48770;51.624;5.886;2023-05-21T14:29:36;5.55;;;5.00;;
62709;SDS011;48770;51.624;5.886;2023-05-21T14:32:01;6.70;;;5.67;;
62709;SDS011;48770;51.624;5.886;2023-05-21T14:34:27;5.68;;;5.05;;
62709;SDS011;48770;51.624;5.886;2023-05-21T14:36:52;6.18;;;5.45;;
62709;SDS011;48770;51.624;5.886;2023-05-21T14:39:17;6.13;;;5.40;;
62709;SDS011;48770;51.624;5.886;2023-05-21T14:41:43;6.50;;;5.72;;
62709;SDS011;48770;51.624;5.886;2023-05-21T14:44:08;5.38;;;4.88;;
62709;SDS011;48770;51.624;5.886;2023-05-21T14:46:33;6.00;;;5.22;;
62709;SDS011;48770;51.624;5.886;2023-05-21T14:49:00;6.00;;;5.38;;
62709;SDS011;48770;51.624;5.886;2023-05-21T14:51:27;6.18;;;5.57;;
62709;SDS011;48770;51.624;5.886;2023-05-21T14:53:53;6.30;;;5.30;;
62709;SDS011;48770;51.624;5.886;2023-05-21T14:56:19;5.75;;;5.25;;
62709;SDS011;48770;51.624;5.886;2023-05-21T14:58:45;5.70;;;5.05;;
62709;SDS011;48770;51.624;5.886;2023-05-21T15:01:11;5.53;;;5.03;;
62709;SDS011;48770;51.624;5.886;2023-05-21T15:03:36;5.88;;;5.25;;
62709;SDS011;48770;51.624;5.886;2023-05-21T15:06:02;7.03;;;5.07;;
62709;SDS011;48770;51.624;5.886;2023-05-21T15:08:27;5.60;;;5.05;;
62709;SDS011;48770;51.624;5.886;2023-05-21T15:10:52;5.43;;;4.93;;
62709;SDS011;48770;51.624;5.886;2023-05-21T15:13:18;5.55;;;5.05;;
62709;SDS011;48770;51.624;5.886;2023-05-21T15:15:45;5.78;;;5.18;;